createdAt,value
2022-09-14T00:01:27.610Z,46.76
2022-09-14T00:03:57.362Z,46.65
2022-09-14T00:06:25.816Z,46.65
2022-09-14T00:08:56.601Z,46.66
2022-09-14T00:11:26.808Z,46.40
2022-09-14T00:13:55.278Z,46.68
2022-09-14T00:16:26.159Z,46.51
2022-09-14T00:18:55.780Z,46.38
2022-09-14T00:21:24.404Z,46.43
2022-09-14T00:23:52.589Z,46.33
2022-09-14T00:26:24.293Z,46.53
2022-09-14T00:28:54.476Z,46.52
2022-09-14T00:31:23.275Z,46.68
2022-09-14T00:33:52.816Z,46.42
2022-09-14T00:36:22.777Z,46.50
2022-09-14T00:38:51.680Z,46.68
2022-09-14T00:41:23.161Z,46.51
2022-09-14T00:43:57.021Z,46.70
2022-09-14T00:46:25.824Z,46.63
2022-09-14T00:48:54.550Z,46.46
2022-09-14T00:51:23.459Z,46.62
2022-09-14T00:53:51.761Z,46.51
2022-09-14T00:56:20.574Z,46.57
2022-09-14T00:58:52.956Z,46.45
2022-09-14T01:01:21.045Z,46.42
2022-09-14T01:03:49.169Z,46.32
2022-09-14T01:06:24.432Z,46.47
2022-09-14T01:09:08.837Z,46.46
2022-09-14T01:12:05.284Z,46.44
2022-09-14T01:14:43.268Z,46.60
2022-09-14T01:17:16.187Z,46.23
2022-09-14T01:20:05.221Z,46.49
2022-09-14T01:22:38.070Z,46.46
2022-09-14T01:25:21.566Z,46.36
2022-09-14T01:27:52.950Z,46.60
2022-09-14T01:30:24.458Z,46.47
2022-09-14T01:32:55.551Z,46.49
2022-09-14T01:35:30.525Z,46.32
2022-09-14T01:38:04.093Z,46.32
2022-09-14T01:40:34.979Z,46.55
2022-09-14T01:43:09.121Z,46.36
2022-09-14T01:45:38.527Z,46.58
2022-09-14T01:48:10.096Z,46.34
2022-09-14T01:50:42.496Z,46.48
2022-09-14T01:53:16.099Z,46.54
2022-09-14T01:55:48.702Z,46.69
2022-09-14T01:58:22.704Z,46.38
2022-09-14T02:00:52.011Z,46.47
2022-09-14T02:03:23.743Z,46.41
2022-09-14T02:05:59.103Z,46.51
2022-09-14T02:08:29.928Z,46.64
2022-09-14T02:10:58.406Z,46.58
2022-09-14T02:13:28.604Z,46.29
2022-09-14T02:15:56.932Z,46.30
2022-09-14T02:18:25.142Z,46.43
2022-09-14T02:20:57.900Z,46.43
2022-09-14T02:23:26.295Z,46.56
2022-09-14T02:25:54.322Z,46.49
2022-09-14T02:28:22.641Z,46.25
2022-09-14T02:31:02.213Z,46.29
2022-09-14T02:33:40.901Z,46.50
2022-09-14T02:36:17.174Z,46.43
2022-09-14T02:38:51.273Z,46.41
2022-09-14T02:41:23.829Z,46.51
2022-09-14T02:44:00.937Z,46.29
2022-09-14T02:46:38.160Z,46.45
2022-09-14T02:49:15.338Z,46.21
2022-09-14T02:51:50.346Z,46.28
2022-09-14T02:54:23.906Z,46.39
2022-09-14T02:56:51.990Z,46.41
2022-09-14T02:59:19.885Z,46.48
2022-09-14T03:01:49.160Z,46.25
2022-09-14T03:04:17.105Z,46.04
2022-09-14T03:06:44.948Z,46.30
2022-09-14T03:09:12.838Z,45.93
2022-09-14T03:11:40.718Z,46.12
2022-09-14T03:14:08.577Z,46.26
2022-09-14T03:16:38.226Z,45.98
2022-09-14T03:19:07.517Z,45.93
2022-09-14T03:21:35.436Z,46.08
2022-09-14T03:24:04.329Z,45.77
2022-09-14T03:26:36.697Z,45.80
2022-09-14T03:29:05.608Z,45.80
2022-09-14T03:31:34.148Z,45.69
2022-09-14T03:34:03.249Z,45.86
2022-09-14T03:36:32.705Z,45.95
2022-09-14T03:39:02.809Z,45.72
2022-09-14T03:41:31.006Z,45.72
2022-09-14T03:43:58.958Z,45.72
2022-09-14T03:46:27.497Z,45.52
2022-09-14T03:48:56.144Z,45.45
2022-09-14T03:51:24.413Z,45.39
2022-09-14T03:53:54.481Z,45.29
2022-09-14T03:56:24.259Z,45.46
2022-09-14T03:58:52.343Z,45.22
2022-09-14T04:01:22.667Z,45.29
2022-09-14T04:03:51.241Z,45.16
2022-09-14T04:06:20.337Z,45.29
2022-09-14T04:08:48.764Z,45.21
2022-09-14T04:11:20.119Z,45.14
2022-09-14T04:13:48.737Z,45.02
2022-09-14T04:16:17.810Z,45.30
2022-09-14T04:18:46.076Z,45.10
2022-09-14T04:21:15.855Z,45.21
2022-09-14T04:24:12.825Z,45.25
2022-09-14T04:26:34.273Z,45.13
2022-09-14T04:29:02.191Z,44.91
2022-09-14T04:31:30.229Z,45.01
2022-09-14T04:33:58.500Z,45.03
2022-09-14T04:36:30.991Z,44.68
2022-09-14T04:39:01.189Z,44.77
2022-09-14T04:41:30.821Z,44.45
2022-09-14T04:44:00.555Z,44.41
2022-09-14T04:46:30.511Z,44.60
2022-09-14T04:48:58.918Z,44.46
2022-09-14T04:51:30.269Z,44.53
2022-09-14T04:54:00.287Z,44.63
2022-09-14T04:56:30.177Z,44.42
2022-09-14T04:59:01.798Z,44.37
2022-09-14T05:01:31.391Z,44.42
2022-09-14T05:03:59.799Z,44.45
2022-09-14T05:06:29.832Z,44.55
2022-09-14T05:08:59.178Z,44.44
2022-09-14T05:11:28.988Z,44.55
2022-09-14T05:13:57.991Z,44.43
2022-09-14T05:16:29.004Z,44.34
2022-09-14T05:19:01.234Z,44.56
2022-09-14T05:21:30.737Z,44.56
2022-09-14T05:24:01.998Z,44.43
2022-09-14T05:26:31.724Z,44.53
2022-09-14T05:29:03.378Z,44.51
2022-09-14T05:31:33.610Z,44.54
2022-09-14T05:34:01.713Z,44.63
2022-09-14T05:36:29.590Z,44.51
2022-09-14T05:38:59.143Z,44.72
2022-09-14T05:41:27.038Z,44.71
2022-09-14T05:43:54.961Z,44.74
2022-09-14T05:46:23.022Z,44.48
2022-09-14T05:48:52.560Z,44.74
2022-09-14T05:51:22.482Z,44.71
2022-09-14T05:53:51.512Z,44.87
2022-09-14T05:56:21.129Z,44.62
2022-09-14T05:58:49.821Z,44.78
2022-09-14T06:01:19.481Z,44.49
2022-09-14T06:03:48.877Z,44.60
2022-09-14T06:06:20.206Z,44.74
2022-09-14T06:08:52.324Z,44.61
2022-09-14T06:11:21.789Z,44.70
2022-09-14T06:13:50.007Z,44.74
2022-09-14T06:16:19.620Z,44.53
2022-09-14T06:18:48.861Z,44.64
2022-09-14T06:21:20.503Z,44.68
2022-09-14T06:23:49.696Z,44.28
2022-09-14T06:26:18.114Z,44.51
2022-09-14T06:28:46.171Z,44.44
2022-09-14T06:31:15.163Z,44.26
2022-09-14T06:33:46.907Z,44.65
2022-09-14T06:36:17.902Z,44.67
2022-09-14T06:38:48.991Z,44.53
2022-09-14T06:41:19.281Z,44.28
2022-09-14T06:43:47.817Z,44.47
2022-09-14T06:46:19.168Z,44.30
2022-09-14T06:48:48.792Z,44.18
2022-09-14T06:51:19.362Z,44.36
2022-09-14T06:53:49.603Z,44.57
2022-09-14T06:56:18.167Z,44.95
2022-09-14T06:58:46.738Z,44.90
2022-09-14T07:01:16.892Z,44.98
2022-09-14T07:03:46.954Z,44.97
2022-09-14T07:06:16.717Z,45.37
2022-09-14T07:08:45.217Z,45.62
2022-09-14T07:11:15.598Z,46.23
2022-09-14T07:13:43.452Z,46.40
2022-09-14T07:16:11.812Z,46.80
2022-09-14T07:18:40.173Z,46.68
2022-09-14T07:21:10.188Z,46.23
2022-09-14T07:23:39.698Z,46.04
2022-09-14T07:26:09.217Z,45.77
2022-09-14T07:28:40.114Z,45.52
2022-09-14T07:31:19.154Z,45.47
2022-09-14T07:33:47.479Z,45.46
2022-09-14T07:36:16.309Z,45.39
2022-09-14T07:38:52.990Z,45.41
2022-09-14T07:41:22.207Z,45.05
2022-09-14T07:43:52.841Z,44.70
2022-09-14T07:46:21.783Z,44.71
2022-09-14T07:48:55.118Z,44.49
2022-09-14T07:51:23.778Z,44.52
2022-09-14T07:53:51.953Z,44.18
2022-09-14T07:56:19.987Z,43.90
2022-09-14T07:58:51.452Z,44.06
2022-09-14T08:01:24.317Z,43.91
2022-09-14T08:03:52.240Z,43.86
2022-09-14T08:06:22.432Z,43.78
2022-09-14T08:08:52.562Z,43.65
2022-09-14T08:11:22.190Z,43.68
2022-09-14T08:13:52.992Z,43.19
2022-09-14T08:16:21.301Z,43.29
2022-09-14T08:18:56.448Z,43.13
2022-09-14T08:21:24.858Z,43.32
2022-09-14T08:23:53.148Z,43.06
2022-09-14T08:26:23.457Z,43.04
2022-09-14T08:28:52.771Z,43.02
2022-09-14T08:31:22.641Z,42.91
2022-09-14T08:33:53.338Z,42.78
2022-09-14T08:36:23.141Z,43.04
2022-09-14T08:38:51.372Z,44.65
2022-09-14T08:41:29.417Z,45.00
2022-09-14T08:44:01.748Z,44.89
2022-09-14T08:46:32.784Z,44.73
2022-09-14T08:49:04.690Z,44.39
2022-09-14T08:51:32.640Z,44.29
2022-09-14T08:54:00.582Z,44.05
2022-09-14T08:56:33.818Z,43.86
2022-09-14T08:59:35.937Z,43.65
2022-09-14T09:02:20.337Z,43.20
2022-09-14T09:04:55.469Z,43.54
2022-09-14T09:07:33.072Z,43.43
2022-09-14T09:10:01.364Z,43.48
2022-09-14T09:12:37.665Z,43.26
2022-09-14T09:15:16.156Z,43.32
2022-09-14T09:17:48.669Z,43.14
2022-09-14T09:20:23.399Z,43.07
2022-09-14T09:22:56.225Z,43.03
2022-09-14T09:25:27.753Z,43.15
2022-09-14T09:27:59.294Z,43.14
2022-09-14T09:30:29.308Z,43.13
2022-09-14T09:32:57.989Z,42.90
2022-09-14T09:35:52.388Z,42.92
2022-09-14T09:38:29.296Z,42.89
2022-09-14T09:41:02.952Z,42.93
2022-09-14T09:43:48.457Z,42.90
2022-09-14T09:46:18.552Z,42.78
2022-09-14T09:48:48.327Z,42.75
2022-09-14T09:51:26.726Z,42.67
2022-09-14T09:53:57.114Z,42.65
2022-09-14T09:56:27.570Z,42.65
2022-09-14T09:58:56.067Z,42.65
2022-09-14T10:01:29.228Z,42.62
2022-09-14T10:04:16.184Z,42.53
2022-09-14T10:06:47.374Z,42.48
2022-09-14T10:09:18.062Z,42.58
2022-09-14T10:11:47.642Z,42.72
2022-09-14T10:14:25.927Z,42.53
2022-09-14T10:16:54.458Z,42.70
2022-09-14T10:19:26.039Z,42.62
2022-09-14T10:22:25.739Z,42.71
2022-09-14T10:24:57.387Z,42.59
2022-09-14T10:27:41.405Z,42.59
2022-09-14T10:30:16.716Z,42.67
2022-09-14T10:32:50.076Z,42.72
2022-09-14T10:35:18.692Z,42.63
2022-09-14T10:38:01.050Z,42.52
2022-09-14T10:40:36.248Z,42.82
2022-09-14T10:43:14.622Z,42.44
2022-09-14T10:45:48.598Z,42.58
2022-09-14T10:48:45.259Z,42.68
2022-09-14T10:51:40.018Z,42.59
2022-09-14T10:54:19.418Z,42.64
2022-09-14T10:57:03.599Z,42.47
2022-09-14T10:59:36.146Z,42.47
2022-09-14T11:02:35.802Z,42.62
2022-09-14T11:05:16.645Z,42.54
2022-09-14T11:07:57.257Z,42.57
2022-09-14T11:10:33.648Z,42.48
2022-09-14T11:13:34.910Z,42.29
2022-09-14T11:16:12.252Z,42.38
2022-09-14T11:18:54.224Z,42.24
2022-09-14T11:21:32.618Z,42.30
2022-09-14T11:24:06.812Z,42.31
2022-09-14T11:26:42.378Z,42.10
2022-09-14T11:29:24.562Z,42.00
2022-09-14T11:32:16.792Z,42.09
2022-09-14T11:34:47.583Z,41.98
2022-09-14T11:37:18.808Z,41.89
2022-09-14T11:39:49.901Z,41.77
2022-09-14T11:42:24.448Z,41.70
2022-09-14T11:45:00.026Z,41.68
2022-09-14T11:47:29.936Z,41.70
2022-09-14T11:50:03.924Z,41.70
2022-09-14T11:52:33.757Z,41.69
2022-09-14T11:55:03.226Z,42.24
2022-09-14T11:57:34.751Z,42.29
2022-09-14T12:00:07.521Z,42.49
2022-09-14T12:02:58.452Z,42.69
2022-09-14T12:05:29.877Z,42.63
2022-09-14T12:08:03.229Z,42.85
2022-09-14T12:10:31.872Z,42.87
2022-09-14T12:13:21.000Z,42.75
2022-09-14T12:15:49.013Z,42.91
2022-09-14T12:18:25.652Z,42.65
2022-09-14T12:21:20.901Z,42.69
2022-09-14T12:23:52.514Z,42.87
2022-09-14T12:26:32.134Z,42.78
2022-09-14T12:29:25.584Z,42.54
2022-09-14T12:32:40.628Z,42.64
2022-09-14T12:35:48.094Z,42.55
2022-09-14T12:38:42.368Z,42.46
2022-09-14T12:41:47.676Z,42.45
2022-09-14T12:44:35.932Z,42.46
2022-09-14T12:47:54.188Z,42.45
2022-09-14T12:50:23.565Z,42.28
2022-09-14T12:53:22.608Z,42.25
2022-09-14T12:55:59.938Z,42.30
2022-09-14T12:58:51.067Z,42.26
2022-09-14T13:01:30.512Z,42.18
2022-09-14T13:03:59.488Z,42.23
2022-09-14T13:06:35.644Z,42.05
2022-09-14T13:09:09.392Z,42.10
2022-09-14T13:11:41.497Z,42.23
2022-09-14T13:14:17.624Z,42.09
2022-09-14T13:16:51.503Z,42.24
2022-09-14T13:19:25.917Z,42.33
2022-09-14T13:21:56.486Z,42.38
2022-09-14T13:24:28.692Z,42.51
2022-09-14T13:27:00.148Z,42.44
2022-09-14T13:29:28.589Z,42.47
2022-09-14T13:32:03.356Z,42.55
2022-09-14T13:34:35.703Z,42.50
2022-09-14T13:37:04.844Z,42.58
2022-09-14T13:39:35.929Z,42.54
2022-09-14T13:42:04.916Z,42.60
2022-09-14T13:44:34.910Z,42.56
2022-09-14T13:47:06.880Z,42.48
2022-09-14T13:49:36.829Z,42.64
2022-09-14T13:52:50.055Z,42.58
2022-09-14T13:55:23.576Z,42.54
2022-09-14T13:58:15.145Z,42.64
2022-09-14T14:00:53.064Z,42.70
2022-09-14T14:03:31.429Z,42.84
2022-09-14T14:06:00.382Z,42.94
2022-09-14T14:08:36.216Z,43.04
2022-09-14T14:11:07.570Z,43.03
2022-09-14T14:13:38.231Z,43.14
2022-09-14T14:16:21.596Z,43.22
2022-09-14T14:18:55.629Z,43.19
2022-09-14T14:21:30.103Z,43.17
2022-09-14T14:24:26.413Z,43.20
2022-09-14T14:26:56.340Z,43.14
2022-09-14T14:29:24.944Z,43.03
2022-09-14T14:31:54.948Z,43.12
2022-09-14T14:34:25.726Z,43.01
2022-09-14T14:36:53.989Z,42.99
2022-09-14T14:39:23.615Z,43.16
2022-09-14T14:41:52.040Z,42.95
2022-09-14T14:44:23.192Z,43.09
2022-09-14T14:46:51.383Z,42.99
2022-09-14T14:49:20.526Z,42.87
2022-09-14T14:51:49.827Z,42.64
2022-09-14T14:54:18.054Z,42.62
2022-09-14T14:56:46.624Z,42.61
2022-09-14T14:59:27.581Z,42.52
2022-09-14T15:01:56.071Z,42.65
2022-09-14T15:04:24.166Z,42.41
2022-09-14T15:06:55.948Z,42.43
2022-09-14T15:09:26.136Z,42.51
2022-09-14T15:11:55.280Z,42.68
2022-09-14T15:14:27.769Z,42.45
2022-09-14T15:16:59.932Z,42.51
2022-09-14T15:19:28.282Z,42.54
2022-09-14T15:22:01.311Z,42.25
2022-09-14T15:24:30.301Z,42.34
2022-09-14T15:26:58.838Z,42.32
2022-09-14T15:29:26.770Z,42.18
2022-09-14T15:31:54.817Z,42.09
2022-09-14T15:34:22.960Z,41.99
2022-09-14T15:36:52.986Z,42.12
2022-09-14T15:39:27.113Z,41.99
2022-09-14T15:41:56.013Z,41.91
2022-09-14T15:44:26.456Z,41.97
2022-09-14T15:46:54.700Z,42.13
2022-09-14T15:49:24.146Z,41.86
2022-09-14T15:51:53.812Z,41.99
2022-09-14T15:54:25.697Z,42.18
2022-09-14T15:56:55.959Z,42.34
2022-09-14T15:59:24.143Z,42.19
2022-09-14T16:01:52.128Z,42.10
2022-09-14T16:04:20.569Z,42.04
2022-09-14T16:06:48.872Z,42.04
2022-09-14T16:09:18.693Z,42.12
2022-09-14T16:11:48.388Z,42.07
2022-09-14T16:14:17.800Z,41.94
2022-09-14T16:16:45.693Z,42.01
2022-09-14T16:19:15.704Z,41.94
2022-09-14T16:21:43.926Z,41.90
2022-09-14T16:24:14.533Z,41.90
2022-09-14T16:26:42.498Z,41.95
2022-09-14T16:29:14.541Z,41.87
2022-09-14T16:31:44.641Z,41.82
2022-09-14T16:34:14.961Z,41.89
2022-09-14T16:36:43.588Z,41.95
2022-09-14T16:39:14.507Z,42.01
2022-09-14T16:41:42.821Z,41.90
2022-09-14T16:44:16.664Z,42.02
2022-09-14T16:46:45.012Z,41.99
2022-09-14T16:49:13.458Z,41.98
2022-09-14T16:51:41.552Z,41.92
2022-09-14T16:54:10.121Z,41.99
2022-09-14T16:56:39.445Z,42.08
2022-09-14T16:59:08.576Z,42.19
2022-09-14T17:01:40.800Z,42.00
2022-09-14T17:04:11.770Z,42.07
2022-09-14T17:06:41.505Z,42.08
2022-09-14T17:09:11.497Z,42.07
2022-09-14T17:11:40.930Z,42.10
2022-09-14T17:14:10.215Z,42.20
2022-09-14T17:16:39.572Z,42.09
2022-09-14T17:19:07.538Z,42.23
2022-09-14T17:21:37.388Z,42.10
2022-09-14T17:24:06.501Z,42.38
2022-09-14T17:26:35.641Z,42.29
2022-09-14T17:29:04.334Z,42.31
2022-09-14T17:31:35.494Z,42.32
2022-09-14T17:34:07.299Z,42.39
2022-09-14T17:36:35.997Z,42.38
2022-09-14T17:39:10.657Z,42.54
2022-09-14T17:41:40.450Z,42.58
2022-09-14T17:44:10.946Z,42.46
2022-09-14T17:46:48.240Z,42.52
2022-09-14T17:49:21.725Z,42.62
2022-09-14T17:51:50.161Z,42.59
2022-09-14T17:54:18.793Z,42.35
2022-09-14T17:56:46.714Z,42.45
2022-09-14T17:59:17.581Z,42.55
2022-09-14T18:01:45.617Z,42.60
2022-09-14T18:04:15.784Z,42.52
2022-09-14T18:06:47.669Z,42.53
2022-09-14T18:09:17.783Z,42.81
2022-09-14T18:11:46.443Z,42.78
2022-09-14T18:14:15.196Z,42.53
2022-09-14T18:16:44.293Z,42.76
2022-09-14T18:19:13.372Z,42.74
2022-09-14T18:21:42.207Z,42.75
2022-09-14T18:24:14.870Z,42.90
2022-09-14T18:26:46.248Z,43.02
2022-09-14T18:29:18.271Z,42.65
2022-09-14T18:31:46.314Z,42.88
2022-09-14T18:34:15.093Z,43.00
2022-09-14T18:36:43.502Z,42.59
2022-09-14T18:39:14.117Z,42.73
2022-09-14T18:41:43.671Z,42.80
2022-09-14T18:44:12.681Z,42.77
2022-09-14T18:46:41.235Z,42.65
2022-09-14T18:49:10.366Z,42.63
2022-09-14T18:51:38.503Z,42.58
2022-09-14T18:54:12.939Z,42.79
2022-09-14T18:56:42.578Z,42.78
2022-09-14T18:59:14.435Z,42.58
2022-09-14T19:01:44.141Z,42.68
2022-09-14T19:04:13.205Z,42.75
2022-09-14T19:06:41.991Z,42.31
2022-09-14T19:09:11.683Z,42.52
2022-09-14T19:11:39.801Z,42.54
2022-09-14T19:14:12.687Z,42.48
2022-09-14T19:16:42.810Z,42.43
2022-09-14T19:19:14.343Z,42.44
2022-09-14T19:21:44.838Z,42.40
2022-09-14T19:24:15.242Z,42.22
2022-09-14T19:26:46.402Z,42.16
2022-09-14T19:29:18.123Z,42.24
2022-09-14T19:31:48.512Z,42.33
2022-09-14T19:34:17.667Z,42.13
2022-09-14T19:36:47.549Z,42.52
2022-09-14T19:39:17.397Z,42.43
2022-09-14T19:41:47.506Z,42.42
2022-09-14T19:44:22.399Z,42.22
2022-09-14T19:46:52.925Z,42.23
2022-09-14T19:49:25.628Z,42.32
2022-09-14T19:51:54.427Z,42.52
2022-09-14T19:54:22.671Z,42.28
2022-09-14T19:56:50.722Z,42.13
2022-09-14T19:59:20.083Z,42.21
2022-09-14T20:01:48.121Z,42.17
2022-09-14T20:04:18.301Z,42.45
2022-09-14T20:06:48.080Z,42.46
2022-09-14T20:09:17.884Z,42.76
2022-09-14T20:11:47.262Z,42.92
2022-09-14T20:14:23.024Z,43.28
2022-09-14T20:16:53.119Z,43.47
2022-09-14T20:19:22.986Z,43.04
2022-09-14T20:21:52.249Z,43.06
2022-09-14T20:24:25.486Z,42.85
2022-09-14T20:26:55.402Z,42.96
2022-09-14T20:29:26.226Z,42.66
2022-09-14T20:31:54.195Z,42.64
2022-09-14T20:34:22.217Z,42.42
2022-09-14T20:36:51.287Z,42.41
2022-09-14T20:39:20.126Z,42.39
2022-09-14T20:41:48.703Z,42.45
2022-09-14T20:44:21.920Z,42.27
2022-09-14T20:46:52.096Z,42.23
2022-09-14T20:49:22.118Z,42.09
2022-09-14T20:51:52.568Z,42.17
2022-09-14T20:54:20.878Z,42.17
2022-09-14T20:56:48.737Z,41.78
2022-09-14T20:59:18.330Z,41.62
2022-09-14T21:01:49.489Z,41.65
2022-09-14T21:04:22.106Z,41.82
2022-09-14T21:06:52.850Z,41.65
2022-09-14T21:09:24.096Z,41.67
2022-09-14T21:11:52.920Z,41.42
2022-09-14T21:14:21.452Z,41.59
2022-09-14T21:16:53.161Z,41.47
2022-09-14T21:19:24.489Z,41.33
2022-09-14T21:21:52.785Z,41.15
2022-09-14T21:24:22.126Z,41.24
2022-09-14T21:26:49.984Z,41.14
2022-09-14T21:29:20.962Z,40.97
2022-09-14T21:31:49.706Z,41.11
2022-09-14T21:34:18.565Z,40.97
2022-09-14T21:36:50.814Z,41.14
2022-09-14T21:39:21.626Z,40.93
2022-09-14T21:41:53.437Z,40.96
2022-09-14T21:44:24.053Z,41.10
2022-09-14T21:46:52.176Z,41.02
2022-09-14T21:49:21.866Z,40.93
2022-09-14T21:51:51.485Z,41.16
2022-09-14T21:54:20.417Z,41.10
2022-09-14T21:56:48.868Z,41.09
2022-09-14T21:59:19.207Z,41.14
2022-09-14T22:01:47.640Z,41.04
2022-09-14T22:04:17.075Z,41.15
2022-09-14T22:06:45.705Z,41.12
2022-09-14T22:09:16.717Z,41.05
2022-09-14T22:11:44.660Z,40.90
2022-09-14T22:14:14.649Z,41.01
2022-09-14T22:16:43.325Z,40.97
2022-09-14T22:19:15.686Z,40.98
2022-09-14T22:21:43.948Z,41.27
2022-09-14T22:24:15.088Z,41.21
2022-09-14T22:26:45.397Z,41.08
2022-09-14T22:29:14.526Z,40.89
2022-09-14T22:31:44.149Z,41.06
2022-09-14T22:34:12.614Z,41.09
2022-09-14T22:36:41.226Z,41.00
2022-09-14T22:39:10.070Z,40.88
2022-09-14T22:41:38.800Z,40.84
2022-09-14T22:44:08.785Z,40.88
2022-09-14T22:46:37.254Z,40.62
2022-09-14T22:49:05.256Z,40.47
2022-09-14T22:51:33.472Z,40.60
2022-09-14T22:54:02.018Z,40.93
2022-09-14T22:56:32.445Z,40.79
2022-09-14T22:59:01.601Z,40.86
2022-09-14T23:01:33.602Z,40.64
2022-09-14T23:04:04.804Z,40.77
2022-09-14T23:06:34.392Z,40.76
2022-09-14T23:09:02.958Z,40.69
2022-09-14T23:11:31.375Z,40.90
2022-09-14T23:13:59.401Z,40.75
2022-09-14T23:16:29.537Z,40.75
2022-09-14T23:19:00.761Z,40.69
2022-09-14T23:21:31.002Z,40.63
2022-09-14T23:24:01.001Z,40.65
2022-09-14T23:26:29.958Z,40.65
2022-09-14T23:28:59.733Z,40.94
2022-09-14T23:31:29.060Z,40.50
2022-09-14T23:33:59.886Z,40.90
2022-09-14T23:36:28.233Z,40.62
2022-09-14T23:38:56.151Z,40.73
2022-09-14T23:41:25.674Z,40.79
2022-09-14T23:43:54.110Z,40.75
2022-09-14T23:46:22.795Z,40.80
2022-09-14T23:48:51.677Z,40.54
2022-09-14T23:51:21.164Z,40.72
2022-09-14T23:53:49.369Z,40.68
2022-09-14T23:56:17.247Z,40.40
2022-09-14T23:58:45.651Z,40.71
